createdAt,value
2018-06-05T00:01:18.217Z,23.00
2018-06-05T00:03:50.055Z,22.33
2018-06-05T00:06:43.229Z,22.67
2018-06-05T00:09:14.909Z,22.67
2018-06-05T00:11:49.069Z,24.25
2018-06-05T00:14:19.547Z,24.67
2018-06-05T00:16:50.518Z,24.67
2018-06-05T00:19:23.298Z,24.00
2018-06-05T00:21:53.984Z,23.00
2018-06-05T00:24:24.573Z,24.00
2018-06-05T00:26:56.543Z,22.67
2018-06-05T00:29:27.633Z,21.67
2018-06-05T00:31:58.162Z,24.33
2018-06-05T00:34:29.510Z,25.00
2018-06-05T00:37:00.024Z,23.00
2018-06-05T00:39:32.290Z,24.00
2018-06-05T00:42:03.576Z,24.00
2018-06-05T00:44:35.669Z,24.00
2018-06-05T00:47:06.966Z,25.67
2018-06-05T00:49:39.512Z,25.00
2018-06-05T00:52:10.710Z,25.00
2018-06-05T00:54:45.763Z,25.00
2018-06-05T00:57:18.612Z,24.33
2018-06-05T00:59:50.019Z,26.67
2018-06-05T01:02:21.472Z,25.67
2018-06-05T01:04:53.505Z,26.00
2018-06-05T01:07:26.293Z,24.67
2018-06-05T01:09:59.697Z,26.00
2018-06-05T01:12:32.985Z,25.00
2018-06-05T01:15:04.816Z,25.33
2018-06-05T01:17:35.380Z,25.00
2018-06-05T01:20:09.445Z,23.33
2018-06-05T01:22:42.574Z,24.67
2018-06-05T01:25:13.438Z,23.33
2018-06-05T01:27:44.283Z,23.00
2018-06-05T01:30:15.460Z,22.33
2018-06-05T01:32:48.095Z,24.67
2018-06-05T01:35:19.906Z,24.00
2018-06-05T01:37:50.671Z,23.00
2018-06-05T01:40:23.857Z,23.75
2018-06-05T01:42:55.191Z,23.00
2018-06-05T01:45:28.839Z,24.67
2018-06-05T01:47:59.374Z,26.00
2018-06-05T01:50:33.672Z,26.00
2018-06-05T01:53:05.302Z,26.00
2018-06-05T01:55:37.652Z,26.00
2018-06-05T01:58:08.304Z,22.00
2018-06-05T02:00:41.093Z,24.33
2018-06-05T02:03:13.246Z,24.67
2018-06-05T02:05:44.669Z,23.67
2018-06-05T02:08:16.685Z,26.00
2018-06-05T02:10:51.878Z,26.25
2018-06-05T02:13:23.573Z,25.00
2018-06-05T02:15:54.110Z,23.00
2018-06-05T02:18:24.652Z,22.00
2018-06-05T02:20:55.318Z,21.67
2018-06-05T02:23:25.925Z,26.00
2018-06-05T02:25:58.937Z,21.33
2018-06-05T02:28:30.446Z,23.33
2018-06-05T02:31:04.710Z,24.00
2018-06-05T02:33:40.663Z,25.75
2018-06-05T02:36:14.985Z,23.67
2018-06-05T02:38:48.415Z,24.00
2018-06-05T02:41:21.434Z,22.00
2018-06-05T02:43:54.177Z,24.33
2018-06-05T02:46:27.110Z,24.67
2018-06-05T02:49:01.504Z,22.67
2018-06-05T02:51:34.492Z,22.67
2018-06-05T02:54:07.028Z,22.00
2018-06-05T02:56:37.740Z,25.00
2018-06-05T02:59:08.300Z,24.67
2018-06-05T03:01:39.829Z,24.67
2018-06-05T03:04:10.361Z,24.33
2018-06-05T03:06:41.856Z,24.00
2018-06-05T03:11:41.147Z,21.87
2018-06-05T03:14:13.555Z,24.67
2018-06-05T03:16:44.046Z,25.67
2018-06-05T03:19:15.186Z,25.67
2018-06-05T03:21:45.670Z,24.00
2018-06-05T03:24:15.969Z,25.00
2018-06-05T03:26:47.034Z,24.67
2018-06-05T03:29:17.589Z,22.00
2018-06-05T03:31:48.122Z,23.67
2018-06-05T03:34:19.710Z,24.67
2018-06-05T03:36:50.743Z,25.33
2018-06-05T03:39:28.307Z,23.00
2018-06-05T03:41:59.322Z,22.67
2018-06-05T03:44:30.208Z,26.67
2018-06-05T03:47:00.866Z,23.67
2018-06-05T03:49:35.232Z,21.00
2018-06-05T03:52:06.128Z,24.33
2018-06-05T03:54:37.395Z,25.00
2018-06-05T03:57:08.937Z,24.33
2018-06-05T03:59:39.976Z,23.00
2018-06-05T04:02:12.429Z,19.33
2018-06-05T04:04:42.998Z,21.67
2018-06-05T04:07:14.497Z,20.33
2018-06-05T04:09:45.220Z,21.67
2018-06-05T04:12:15.775Z,21.33
2018-06-05T04:14:46.689Z,21.33
2018-06-05T04:17:17.881Z,19.67
2018-06-05T04:19:48.426Z,19.33
2018-06-05T04:22:19.910Z,22.67
2018-06-05T04:24:50.444Z,19.00
2018-06-05T04:27:24.146Z,20.33
2018-06-05T04:29:54.636Z,22.00
2018-06-05T04:32:25.264Z,21.67
2018-06-05T04:34:57.636Z,19.67
2018-06-05T04:37:30.064Z,21.67
2018-06-05T04:40:06.772Z,22.50
2018-06-05T04:42:37.381Z,22.67
2018-06-05T04:45:07.905Z,20.67
2018-06-05T04:47:38.942Z,19.00
2018-06-05T04:50:09.475Z,19.33
2018-06-05T04:52:40.565Z,20.67
2018-06-05T04:55:11.501Z,24.00
2018-06-05T04:57:42.940Z,23.00
2018-06-05T05:00:16.638Z,19.67
2018-06-05T05:02:47.147Z,22.33
2018-06-05T05:05:17.726Z,18.33
2018-06-05T05:07:48.218Z,21.67
2018-06-05T05:10:18.793Z,23.00
2018-06-05T05:12:49.291Z,21.67
2018-06-05T05:15:20.936Z,20.00
2018-06-05T05:17:52.327Z,22.67
2018-06-05T05:20:22.833Z,20.67
2018-06-05T05:22:54.446Z,20.33
2018-06-05T05:25:25.024Z,21.33
2018-06-05T05:27:57.221Z,23.00
2018-06-05T05:30:32.816Z,22.00
2018-06-05T05:33:03.434Z,20.33
2018-06-05T05:35:34.355Z,19.33
2018-06-05T05:38:07.149Z,19.33
2018-06-05T05:40:38.294Z,20.00
2018-06-05T05:43:11.584Z,24.67
2018-06-05T05:45:43.463Z,21.33
2018-06-05T05:48:14.345Z,18.67
2018-06-05T05:50:44.970Z,19.67
2018-06-05T05:53:16.693Z,21.67
2018-06-05T05:55:47.299Z,21.33
2018-06-05T05:58:17.950Z,22.00
2018-06-05T06:00:49.271Z,19.00
2018-06-05T06:03:22.108Z,20.67
2018-06-05T06:05:53.243Z,22.00
2018-06-05T06:08:25.544Z,20.33
2018-06-05T06:10:57.618Z,22.00
2018-06-05T06:13:29.000Z,18.00
2018-06-05T06:15:59.562Z,20.67
2018-06-05T06:18:30.192Z,18.33
2018-06-05T06:21:01.492Z,24.00
2018-06-05T06:23:34.437Z,20.67
2018-06-05T06:26:04.989Z,20.00
2018-06-05T06:28:36.128Z,22.67
2018-06-05T06:31:06.830Z,23.33
2018-06-05T06:33:37.461Z,22.33
2018-06-05T06:36:09.065Z,22.67
2018-06-05T06:38:39.696Z,21.00
2018-06-05T06:41:10.291Z,22.00
2018-06-05T06:43:40.744Z,20.00
2018-06-05T06:46:11.449Z,22.00
2018-06-05T06:48:42.498Z,22.67
2018-06-05T06:51:13.387Z,20.00
2018-06-05T06:53:44.158Z,18.33
2018-06-05T06:56:16.224Z,21.00
2018-06-05T06:58:46.920Z,24.00
2018-06-05T07:01:24.146Z,19.67
2018-06-05T07:03:55.616Z,21.67
2018-06-05T07:06:26.494Z,22.67
2018-06-05T07:09:00.964Z,17.67
2018-06-05T07:11:32.302Z,20.67
2018-06-05T07:14:04.949Z,21.67
2018-06-05T07:16:38.314Z,21.33
2018-06-05T07:19:10.365Z,21.67
2018-06-05T07:21:43.348Z,20.00
2018-06-05T07:24:14.687Z,22.67
2018-06-05T07:26:45.359Z,23.33
2018-06-05T07:29:19.777Z,19.33
2018-06-05T07:31:50.382Z,22.67
2018-06-05T07:34:22.292Z,22.67
2018-06-05T07:36:52.945Z,21.00
2018-06-05T07:39:24.419Z,21.33
2018-06-05T07:41:55.551Z,21.33
2018-06-05T07:44:26.846Z,22.00
2018-06-05T07:46:57.699Z,22.67
2018-06-05T07:49:29.702Z,21.33
2018-06-05T07:52:00.593Z,21.00
2018-06-05T07:54:31.396Z,22.67
2018-06-05T07:57:02.142Z,19.33
2018-06-05T07:59:33.687Z,20.00
2018-06-05T08:02:04.905Z,21.67
2018-06-05T08:04:36.066Z,22.00
2018-06-05T08:07:07.334Z,18.67
2018-06-05T08:09:38.476Z,23.00
2018-06-05T08:12:10.212Z,20.67
2018-06-05T08:14:42.452Z,22.00
2018-06-05T08:17:14.246Z,19.67
2018-06-05T08:19:45.487Z,22.00
2018-06-05T08:22:17.066Z,22.67
2018-06-05T08:24:49.576Z,20.67
2018-06-05T08:27:20.034Z,20.00
2018-06-05T08:29:51.807Z,22.00
2018-06-05T08:32:25.295Z,21.67
2018-06-05T08:34:57.945Z,21.67
2018-06-05T08:37:31.565Z,20.33
2018-06-05T08:40:03.560Z,21.67
2018-06-05T08:42:34.690Z,21.00
2018-06-05T08:45:06.403Z,21.00
2018-06-05T08:47:38.170Z,21.00
2018-06-05T08:50:09.132Z,22.67
2018-06-05T08:52:39.733Z,19.67
2018-06-05T08:55:10.354Z,22.00
2018-06-05T08:57:42.206Z,21.00
2018-06-05T09:00:14.691Z,19.00
2018-06-05T09:02:46.939Z,21.00
2018-06-05T09:05:18.743Z,21.67
2018-06-05T09:07:50.272Z,21.67
2018-06-05T09:10:22.951Z,22.00
2018-06-05T09:12:54.219Z,21.33
2018-06-05T09:15:29.511Z,20.33
2018-06-05T09:18:01.880Z,21.67
2018-06-05T09:20:33.743Z,21.00
2018-06-05T09:23:04.165Z,20.67
2018-06-05T09:25:34.876Z,20.33
2018-06-05T09:28:06.765Z,20.33
2018-06-05T09:30:37.278Z,21.00
2018-06-05T09:33:07.738Z,19.67
2018-06-05T09:35:39.260Z,20.33
2018-06-05T09:38:10.587Z,20.33
2018-06-05T09:40:42.372Z,18.33
2018-06-05T09:43:13.688Z,18.33
2018-06-05T09:45:44.922Z,18.00
2018-06-05T09:48:18.308Z,18.33
2018-06-05T09:50:51.264Z,18.67
2018-06-05T09:53:23.871Z,18.00
2018-06-05T09:55:57.239Z,20.67
2018-06-05T09:58:29.226Z,20.67
2018-06-05T10:01:00.316Z,17.67
2018-06-05T10:03:32.376Z,19.67
2018-06-05T10:06:03.191Z,20.00
2018-06-05T10:08:34.764Z,18.00
2018-06-05T10:11:05.274Z,19.00
2018-06-05T10:13:36.404Z,20.67
2018-06-05T10:16:08.226Z,17.67
2018-06-05T10:18:39.636Z,18.67
2018-06-05T10:21:10.928Z,20.33
2018-06-05T10:23:43.674Z,18.00
2018-06-05T10:26:14.485Z,19.33
2018-06-05T10:28:45.829Z,19.67
2018-06-05T10:31:17.664Z,21.00
2018-06-05T10:33:48.200Z,17.00
2018-06-05T10:36:19.661Z,18.00
2018-06-05T10:38:50.805Z,17.33
2018-06-05T10:41:21.812Z,17.33
2018-06-05T10:43:53.038Z,18.33
2018-06-05T10:46:24.435Z,17.33
2018-06-05T10:48:56.068Z,19.00
2018-06-05T10:51:28.504Z,17.00
2018-06-05T10:53:59.970Z,17.33
2018-06-05T10:56:34.686Z,16.00
2018-06-05T10:59:07.470Z,18.00
2018-06-05T11:01:40.401Z,16.67
2018-06-05T11:04:14.808Z,17.00
2018-06-05T11:06:45.626Z,19.00
2018-06-05T11:09:18.358Z,15.33
2018-06-05T11:11:51.444Z,18.00
2018-06-05T11:14:26.681Z,17.00
2018-06-05T11:16:59.075Z,14.00
2018-06-05T11:19:31.373Z,14.00
2018-06-05T11:22:04.544Z,14.67
2018-06-05T11:24:36.646Z,16.67
2018-06-05T11:27:08.328Z,18.00
2018-06-05T11:29:39.643Z,15.67
2018-06-05T11:32:12.434Z,14.67
2018-06-05T11:34:42.935Z,13.33
2018-06-05T11:37:13.535Z,14.00
2018-06-05T11:39:49.557Z,13.67
2018-06-05T11:42:21.839Z,14.00
2018-06-05T11:44:54.095Z,13.00
2018-06-05T11:47:25.317Z,13.67
2018-06-05T11:49:58.269Z,13.67
2018-06-05T11:52:33.314Z,13.00
2018-06-05T11:55:05.516Z,13.00
2018-06-05T11:57:35.943Z,14.00
2018-06-05T12:00:18.224Z,15.67
2018-06-05T12:02:50.720Z,14.00
2018-06-05T12:05:21.444Z,14.67
2018-06-05T12:07:53.608Z,13.67
2018-06-05T12:10:25.765Z,13.33
2018-06-05T12:12:56.276Z,12.00
2018-06-05T12:15:31.815Z,15.00
2018-06-05T12:18:05.021Z,10.00
2018-06-05T12:20:36.191Z,12.00
2018-06-05T12:23:09.365Z,10.00
2018-06-05T12:25:42.482Z,12.00
2018-06-05T12:28:15.958Z,10.00
2018-06-05T12:30:50.978Z,11.33
2018-06-05T12:33:25.820Z,11.00
2018-06-05T12:36:00.229Z,11.67
2018-06-05T12:38:34.542Z,11.00
2018-06-05T12:41:08.823Z,13.00
2018-06-05T12:43:42.516Z,12.67
2018-06-05T12:46:16.299Z,11.67
2018-06-05T12:49:56.365Z,10.33
2018-06-05T12:52:31.013Z,11.33
2018-06-05T12:55:03.800Z,10.00
2018-06-05T12:57:36.932Z,10.33
2018-06-05T13:00:08.441Z,11.00
2018-06-05T13:02:44.705Z,10.67
2018-06-05T13:05:16.095Z,8.33
2018-06-05T13:07:49.551Z,10.00
2018-06-05T13:10:22.434Z,10.75
2018-06-05T13:12:53.925Z,11.00
2018-06-05T13:15:26.608Z,9.67
2018-06-05T13:17:58.552Z,8.67
2018-06-05T13:20:30.512Z,9.67
2018-06-05T13:23:02.604Z,10.33
2018-06-05T13:25:35.314Z,9.25
2018-06-05T13:28:07.543Z,11.00
2018-06-05T13:30:40.274Z,11.00
2018-06-05T13:33:12.638Z,9.00
2018-06-05T13:35:44.829Z,9.33
2018-06-05T13:38:20.252Z,10.00
2018-06-05T13:40:52.509Z,8.75
2018-06-05T13:43:27.665Z,10.00
2018-06-05T13:46:00.564Z,9.75
2018-06-05T13:48:34.374Z,9.67
2018-06-05T13:51:08.541Z,9.25
2018-06-05T13:53:42.019Z,7.80
2018-06-05T13:56:17.735Z,9.00
2018-06-05T13:58:52.119Z,8.33
2018-06-05T14:01:23.437Z,7.67
2018-06-05T14:03:57.768Z,7.33
2018-06-05T14:06:30.784Z,8.33
2018-06-05T14:09:04.644Z,7.25
2018-06-05T14:11:37.413Z,8.67
2018-06-05T14:14:13.834Z,7.43
2018-06-05T14:16:45.219Z,7.00
2018-06-05T14:19:17.389Z,7.33
2018-06-05T14:21:52.365Z,8.25
2018-06-05T14:24:24.960Z,7.00
2018-06-05T14:26:56.388Z,8.67
2018-06-05T14:29:28.591Z,6.33
2018-06-05T14:32:02.648Z,7.25
2018-06-05T14:34:35.608Z,6.75
2018-06-05T14:37:10.061Z,7.67
2018-06-05T14:39:42.976Z,7.75
2018-06-05T14:42:14.363Z,9.00
2018-06-05T14:44:48.575Z,7.25
2018-06-05T14:47:20.280Z,9.00
2018-06-05T14:49:51.770Z,8.33
2018-06-05T14:52:27.213Z,7.20
2018-06-05T14:54:58.648Z,9.33
2018-06-05T14:57:32.041Z,7.33
2018-06-05T15:00:08.477Z,7.25
2018-06-05T15:02:43.659Z,7.33
2018-06-05T15:05:17.660Z,8.00
2018-06-05T15:07:50.861Z,8.00
2018-06-05T15:10:22.535Z,7.67
2018-06-05T15:12:55.886Z,7.33
2018-06-05T15:15:28.187Z,7.25
2018-06-05T15:18:00.140Z,7.00
2018-06-05T15:20:33.395Z,7.00
2018-06-05T15:23:07.875Z,7.33
2018-06-05T15:25:43.324Z,9.50
2018-06-05T15:28:14.762Z,9.00
2018-06-05T15:30:46.562Z,7.33
2018-06-05T15:33:20.046Z,8.67
2018-06-05T15:35:52.754Z,8.67
2018-06-05T15:38:24.363Z,7.33
2018-06-05T15:40:57.570Z,7.00
2018-06-05T15:43:32.352Z,6.33
2018-06-05T15:46:07.241Z,7.40
2018-06-05T15:48:39.421Z,8.33
2018-06-05T15:51:12.339Z,7.33
2018-06-05T15:53:45.704Z,7.00
2018-06-05T15:56:17.223Z,7.33
2018-06-05T15:58:50.773Z,7.25
2018-06-05T16:01:24.644Z,7.75
2018-06-05T16:03:58.022Z,7.00
2018-06-05T16:06:31.865Z,6.33
2018-06-05T16:09:06.554Z,6.33
2018-06-05T16:11:39.334Z,6.33
2018-06-05T16:14:14.503Z,7.00
2018-06-05T16:16:46.838Z,6.60
2018-06-05T16:19:21.629Z,6.25
2018-06-05T16:21:55.014Z,7.33
2018-06-05T16:24:27.720Z,8.75
2018-06-05T16:26:59.251Z,6.33
2018-06-05T16:29:30.784Z,7.67
2018-06-05T16:32:04.424Z,6.00
2018-06-05T16:34:36.786Z,6.25
2018-06-05T16:37:09.854Z,5.80
2018-06-05T16:39:46.486Z,5.25
2018-06-05T16:42:19.448Z,6.33
2018-06-05T16:44:55.037Z,5.80
2018-06-05T16:47:28.560Z,4.20
2018-06-05T16:50:02.697Z,5.00
2018-06-05T16:52:38.041Z,4.00
2018-06-05T16:55:14.401Z,5.50
2018-06-05T16:57:48.863Z,4.33
2018-06-05T17:00:22.638Z,4.83
2018-06-05T17:02:56.002Z,5.33
2018-06-05T17:05:30.485Z,4.50
2018-06-05T17:08:04.667Z,4.00
2018-06-05T17:10:39.484Z,5.00
2018-06-05T17:13:14.805Z,4.17
2018-06-05T17:15:47.743Z,5.40
2018-06-05T17:18:19.942Z,5.67
2018-06-05T17:20:52.778Z,5.33
2018-06-05T17:23:25.085Z,6.25
2018-06-05T17:25:59.688Z,6.80
2018-06-05T17:28:33.980Z,8.20
2018-06-05T17:31:10.199Z,5.83
2018-06-05T17:36:35.698Z,6.00
2018-06-05T17:39:10.499Z,4.33
2018-06-05T17:44:32.467Z,4.83
2018-06-05T17:47:09.079Z,4.50
2018-06-05T17:49:44.331Z,5.50
2018-06-05T17:52:18.441Z,5.17
2018-06-05T17:54:53.033Z,6.14
2018-06-05T17:57:30.813Z,6.00
2018-06-05T18:00:05.955Z,6.00
2018-06-05T18:02:38.375Z,7.00
2018-06-05T18:05:12.246Z,8.00
2018-06-05T18:07:49.526Z,7.33
2018-06-05T18:10:24.429Z,7.33
2018-06-05T18:12:57.352Z,8.00
2018-06-05T18:15:33.450Z,9.00
2018-06-05T18:18:06.520Z,9.00
2018-06-05T18:20:43.296Z,9.67
2018-06-05T18:23:16.436Z,9.67
2018-06-05T18:25:49.908Z,11.33
2018-06-05T18:28:23.650Z,11.00
2018-06-05T18:30:55.033Z,12.33
2018-06-05T18:33:42.656Z,14.67
2018-06-05T18:36:17.202Z,13.33
2018-06-05T18:38:54.126Z,13.00
2018-06-05T18:41:27.853Z,13.00
2018-06-05T18:43:58.563Z,13.00
2018-06-05T18:46:29.905Z,13.00
2018-06-05T18:49:02.852Z,12.00
2018-06-05T18:51:40.592Z,13.00
2018-06-05T18:54:13.946Z,13.33
2018-06-05T18:56:45.483Z,13.00
2018-06-05T18:59:16.228Z,11.00
2018-06-05T19:01:52.478Z,13.67
2018-06-05T19:04:25.855Z,13.00
2018-06-05T19:07:01.194Z,12.33
2018-06-05T19:09:32.197Z,13.00
2018-06-05T19:12:04.351Z,10.67
2018-06-05T19:14:37.040Z,13.67
2018-06-05T19:17:10.434Z,14.00
2018-06-05T19:19:42.588Z,13.00
2018-06-05T19:22:16.865Z,14.00
2018-06-05T19:24:48.462Z,12.00
2018-06-05T19:27:22.535Z,13.67
2018-06-05T19:29:56.892Z,15.00
2018-06-05T19:32:29.986Z,13.00
2018-06-05T19:35:03.855Z,14.00
2018-06-05T19:37:38.149Z,13.00
2018-06-05T19:40:16.230Z,13.00
2018-06-05T19:42:55.151Z,14.00
2018-06-05T19:45:33.034Z,13.00
2018-06-05T19:48:05.207Z,13.00
2018-06-05T19:50:49.348Z,14.00
2018-06-05T19:53:25.294Z,13.33
2018-06-05T19:55:57.360Z,13.67
2018-06-05T19:58:33.782Z,15.00
2018-06-05T20:01:06.646Z,14.33
2018-06-05T20:03:40.363Z,13.00
2018-06-05T20:06:11.806Z,13.33
2018-06-05T20:08:42.839Z,14.00
2018-06-05T20:11:13.443Z,14.67
2018-06-05T20:13:44.431Z,14.33
2018-06-05T20:16:16.189Z,16.00
2018-06-05T20:18:48.953Z,13.00
2018-06-05T20:21:24.696Z,13.33
2018-06-05T20:23:59.745Z,15.00
2018-06-05T20:26:35.223Z,16.00
2018-06-05T20:29:10.557Z,16.00
2018-06-05T20:31:41.618Z,16.00
2018-06-05T20:34:13.191Z,15.67
2018-06-05T20:36:44.628Z,13.00
2018-06-05T20:39:15.776Z,17.67
2018-06-05T20:42:00.004Z,16.33
2018-06-05T20:44:37.761Z,16.67
2018-06-05T20:47:09.408Z,15.00
2018-06-05T20:49:39.988Z,15.67
2018-06-05T20:52:16.062Z,17.00
2018-06-05T20:54:51.638Z,17.00
2018-06-05T20:57:25.669Z,15.00
2018-06-05T20:59:56.286Z,16.00
2018-06-05T21:02:29.476Z,15.67
2018-06-05T21:05:02.363Z,15.00
2018-06-05T21:07:34.807Z,16.00
2018-06-05T21:10:07.333Z,15.00
2018-06-05T21:12:45.336Z,15.67
2018-06-05T21:15:17.643Z,18.33
2018-06-05T21:17:50.742Z,15.00
2018-06-05T21:20:21.279Z,16.00
2018-06-05T21:25:40.520Z,15.33
2018-06-05T21:28:11.017Z,15.00
2018-06-05T21:30:44.111Z,16.00
2018-06-05T21:33:16.196Z,16.00
2018-06-05T21:35:47.625Z,19.00
2018-06-05T21:38:18.175Z,14.00
2018-06-05T21:40:56.365Z,15.67
2018-06-05T21:43:35.598Z,15.00
2018-06-05T21:46:07.269Z,15.00
2018-06-05T21:48:38.821Z,14.67
2018-06-05T21:51:10.163Z,16.67
2018-06-05T21:53:42.348Z,16.67
2018-06-05T21:56:12.897Z,15.00
2018-06-05T21:58:44.292Z,15.00
2018-06-05T22:01:15.143Z,16.67
2018-06-05T22:03:45.369Z,14.33
2018-06-05T22:06:17.050Z,18.00
2018-06-05T22:08:49.862Z,15.33
2018-06-05T22:11:20.293Z,14.33
2018-06-05T22:13:56.641Z,15.67
2018-06-05T22:16:27.952Z,17.33
2018-06-05T22:19:03.556Z,17.33
2018-06-05T22:21:36.653Z,15.00
2018-06-05T22:24:08.655Z,17.33
2018-06-05T22:26:41.059Z,15.00
2018-06-05T22:29:11.554Z,16.67
2018-06-05T22:31:43.388Z,16.33
2018-06-05T22:36:52.632Z,15.67
2018-06-05T22:39:25.091Z,16.00
2018-06-05T22:41:58.898Z,15.00
2018-06-05T22:44:31.149Z,14.33
2018-06-05T22:47:01.810Z,16.00
2018-06-05T22:49:33.235Z,15.00
2018-06-05T22:52:03.971Z,17.67
2018-06-05T22:54:36.787Z,16.67
2018-06-05T22:57:07.998Z,14.33
2018-06-05T22:59:39.809Z,15.67
2018-06-05T23:02:11.530Z,14.00
2018-06-05T23:04:44.271Z,12.67
2018-06-05T23:07:14.779Z,16.67
2018-06-05T23:09:45.276Z,14.67
2018-06-05T23:12:19.230Z,13.67
2018-06-05T23:14:52.820Z,14.00
2018-06-05T23:17:23.736Z,12.67
2018-06-05T23:19:54.224Z,14.00
2018-06-05T23:22:24.715Z,14.00
2018-06-05T23:24:56.355Z,13.67
2018-06-05T23:27:28.678Z,14.00
2018-06-05T23:29:59.347Z,14.00
2018-06-05T23:32:30.052Z,14.00
2018-06-05T23:35:01.531Z,13.67
2018-06-05T23:37:32.440Z,14.00
2018-06-05T23:40:03.209Z,13.67
2018-06-05T23:42:35.651Z,14.00
2018-06-05T23:45:06.551Z,14.00
2018-06-05T23:47:37.139Z,15.67
2018-06-05T23:50:08.178Z,13.00
2018-06-05T23:52:39.431Z,13.00
2018-06-05T23:55:09.995Z,12.67
2018-06-05T23:57:40.637Z,16.00
